Fort Bridger, Wyoming
Current Conditions -  °F | °C
As of 11:15 PM on Wednesday 22 Oct 2014 (Local Time) from KFBR Reporting Station
Clear Clear  
Wind Chill:   Ceiling: Unl
Heat Index:   Visibility: NA
Dew Point: -6°   Wind: 9mph
Humidity: 48%   Direction: 250°WSW
Pressure: 30.27"   Gusts: NA
Location:  41.32°N, 110.39°W
Report Text: KFBR 230515Z AUTO 25008KT CLR 05/M06 A3027 RMK AO2 T00461057 PWINO
Loading
Personal Weather Stations






























Interactive Weather Map
Tropical Storm Tracking
New forecast layout! Learn more

10-Day Weather Forecast

Advertisements
Track Severe Weather on mobile